createdAt,value
2018-03-30T00:01:00.488Z,1.83
2018-03-30T00:03:27.951Z,1.70
2018-03-30T00:05:55.468Z,1.90
2018-03-30T00:08:23.084Z,1.40
2018-03-30T00:10:54.305Z,1.60
2018-03-30T00:13:21.782Z,1.43
2018-03-30T00:15:49.228Z,1.60
2018-03-30T00:18:16.669Z,1.60
2018-03-30T00:20:44.159Z,1.83
2018-03-30T00:23:11.655Z,1.53
2018-03-30T00:25:39.188Z,1.63
2018-03-30T00:28:06.636Z,1.40
2018-03-30T00:30:35.227Z,1.40
2018-03-30T00:33:10.534Z,1.70
2018-03-30T00:35:44.021Z,1.50
2018-03-30T00:38:13.273Z,1.50
2018-03-30T00:40:42.686Z,1.37
2018-03-30T00:43:10.242Z,1.20
2018-03-30T00:45:40.786Z,1.43
2018-03-30T00:48:08.194Z,1.30
2018-03-30T00:50:35.679Z,1.70
2018-03-30T00:53:03.138Z,1.50
2018-03-30T00:55:30.546Z,1.30
2018-03-30T00:57:57.992Z,1.50
2018-03-30T01:00:26.978Z,1.33
2018-03-30T01:02:54.481Z,1.47
2018-03-30T01:05:21.938Z,1.50
2018-03-30T01:07:49.349Z,2.00
2018-03-30T01:10:16.779Z,1.27
2018-03-30T01:12:44.290Z,1.30
2018-03-30T01:15:11.736Z,1.40
2018-03-30T01:17:39.260Z,1.20
2018-03-30T01:20:10.951Z,1.30
2018-03-30T01:22:38.488Z,1.10
2018-03-30T01:25:06.352Z,1.30
2018-03-30T01:27:33.862Z,1.10
2018-03-30T01:30:01.306Z,1.00
2018-03-30T01:32:28.839Z,1.20
2018-03-30T01:34:56.483Z,1.30
2018-03-30T01:37:24.039Z,1.17
2018-03-30T01:39:54.421Z,1.23
2018-03-30T01:42:21.879Z,1.23
2018-03-30T01:44:49.360Z,1.30
2018-03-30T01:47:16.797Z,1.30
2018-03-30T01:49:44.217Z,1.30
2018-03-30T01:52:11.709Z,1.20
2018-03-30T01:54:39.287Z,1.50
2018-03-30T01:57:06.732Z,1.20
2018-03-30T01:59:34.153Z,1.40
2018-03-30T02:02:01.635Z,1.40
2018-03-30T02:04:29.053Z,1.30
2018-03-30T02:06:57.474Z,1.20
2018-03-30T02:09:24.953Z,1.20
2018-03-30T02:11:53.435Z,1.20
2018-03-30T02:14:20.874Z,1.27
2018-03-30T02:16:48.367Z,1.40
2018-03-30T02:19:15.868Z,1.20
2018-03-30T02:21:43.315Z,1.10
2018-03-30T02:24:10.784Z,1.20
2018-03-30T02:26:38.244Z,1.37
2018-03-30T02:29:05.676Z,1.33
2018-03-30T02:31:33.101Z,1.20
2018-03-30T02:34:00.590Z,1.10
2018-03-30T02:36:28.021Z,1.30
2018-03-30T02:38:55.423Z,1.23
2018-03-30T02:41:22.867Z,1.13
2018-03-30T02:43:50.301Z,1.20
2018-03-30T02:46:17.832Z,1.43
2018-03-30T02:48:45.884Z,1.20
2018-03-30T02:51:14.815Z,1.20
2018-03-30T02:53:42.350Z,1.10
2018-03-30T02:56:10.898Z,1.20
2018-03-30T02:58:38.405Z,1.30
2018-03-30T03:01:05.974Z,1.40
2018-03-30T03:03:33.486Z,1.07
2018-03-30T03:06:00.903Z,1.30
2018-03-30T03:08:28.406Z,1.10
2018-03-30T03:10:55.819Z,1.40
2018-03-30T03:13:23.237Z,1.27
2018-03-30T03:15:50.737Z,1.10
2018-03-30T03:18:18.187Z,1.13
2018-03-30T03:20:45.665Z,1.30
2018-03-30T03:23:13.072Z,1.30
2018-03-30T03:25:40.669Z,1.30
2018-03-30T03:28:08.143Z,1.10
2018-03-30T03:30:35.657Z,1.30
2018-03-30T03:33:03.140Z,1.40
2018-03-30T03:35:37.996Z,1.20
2018-03-30T03:38:05.445Z,1.23
2018-03-30T03:40:33.032Z,1.00
2018-03-30T03:43:00.530Z,1.30
2018-03-30T03:45:27.928Z,1.00
2018-03-30T03:47:55.377Z,1.00
2018-03-30T03:50:22.858Z,1.40
2018-03-30T03:52:50.280Z,1.17
2018-03-30T03:55:17.696Z,1.23
2018-03-30T03:57:45.086Z,1.30
2018-03-30T04:00:12.481Z,1.40
2018-03-30T04:02:39.934Z,1.47
2018-03-30T04:05:07.363Z,1.40
2018-03-30T04:07:34.789Z,1.57
2018-03-30T04:10:02.233Z,1.20
2018-03-30T04:12:29.639Z,1.47
2018-03-30T04:14:57.096Z,1.20
2018-03-30T04:17:24.547Z,1.10
2018-03-30T04:19:52.001Z,1.20
2018-03-30T04:22:19.450Z,1.60
2018-03-30T04:24:46.893Z,1.37
2018-03-30T04:27:14.345Z,1.30
2018-03-30T04:29:41.767Z,1.60
2018-03-30T04:32:09.216Z,1.43
2018-03-30T04:34:36.665Z,1.50
2018-03-30T04:37:04.125Z,1.33
2018-03-30T04:39:31.602Z,1.53
2018-03-30T04:41:58.992Z,1.40
2018-03-30T04:44:26.413Z,1.50
2018-03-30T04:46:53.834Z,1.27
2018-03-30T04:49:21.367Z,1.50
2018-03-30T04:51:48.762Z,1.50
2018-03-30T04:54:16.194Z,1.63
2018-03-30T04:56:43.582Z,1.30
2018-03-30T04:59:10.998Z,1.17
2018-03-30T05:01:38.558Z,1.40
2018-03-30T05:04:05.986Z,1.40
2018-03-30T05:06:33.429Z,1.60
2018-03-30T05:09:00.848Z,1.43
2018-03-30T05:11:29.330Z,1.30
2018-03-30T05:13:56.810Z,1.40
2018-03-30T05:16:24.283Z,1.43
2018-03-30T05:18:51.686Z,1.40
2018-03-30T05:21:19.135Z,1.47
2018-03-30T05:23:46.579Z,1.50
2018-03-30T05:26:14.021Z,1.60
2018-03-30T05:28:41.513Z,1.30
2018-03-30T05:31:09.083Z,1.17
2018-03-30T05:33:36.492Z,1.23
2018-03-30T05:36:03.887Z,1.37
2018-03-30T05:38:31.334Z,1.20
2018-03-30T05:40:58.786Z,1.30
2018-03-30T05:43:26.163Z,1.10
2018-03-30T05:45:53.677Z,1.00
2018-03-30T05:48:21.135Z,1.07
2018-03-30T05:50:48.526Z,1.07
2018-03-30T05:53:15.982Z,1.30
2018-03-30T05:55:43.373Z,1.30
2018-03-30T05:58:10.805Z,1.00
2018-03-30T06:00:38.232Z,1.00
2018-03-30T06:03:05.693Z,1.00
2018-03-30T06:05:33.113Z,1.10
2018-03-30T06:08:00.588Z,1.17
2018-03-30T06:10:28.004Z,0.90
2018-03-30T06:12:55.454Z,1.00
2018-03-30T06:15:22.924Z,1.13
2018-03-30T06:17:51.200Z,1.00
2018-03-30T06:20:18.605Z,1.17
2018-03-30T06:22:46.029Z,1.00
2018-03-30T06:25:13.453Z,1.20
2018-03-30T06:29:32.607Z,0.90
2018-03-30T06:37:49.229Z,1.00
2018-03-30T06:40:18.897Z,1.20
2018-03-30T06:42:46.768Z,1.00
2018-03-30T06:45:23.108Z,0.87
2018-03-30T06:47:53.503Z,0.90
2018-03-30T06:50:30.016Z,1.10
2018-03-30T06:58:33.038Z,1.00
2018-03-30T07:01:04.328Z,1.07
2018-03-30T07:03:32.138Z,0.90
2018-03-30T07:08:49.418Z,0.90
2018-03-30T07:16:55.149Z,1.30
2018-03-30T07:19:28.546Z,1.00
2018-03-30T07:22:12.685Z,1.20
2018-03-30T07:24:47.269Z,2.70
2018-03-30T07:27:16.175Z,1.10
2018-03-30T07:29:44.154Z,1.03
2018-03-30T07:32:23.674Z,1.00
2018-03-30T07:34:51.129Z,0.90
2018-03-30T07:37:25.368Z,1.10
2018-03-30T07:45:45.573Z,1.07
2018-03-30T07:51:15.541Z,1.00
2018-03-30T07:53:43.076Z,1.37
2018-03-30T07:56:10.527Z,1.53
2018-03-30T07:58:37.958Z,0.93
2018-03-30T08:01:05.413Z,1.10
2018-03-30T08:03:32.903Z,1.33
2018-03-30T08:06:00.442Z,0.97
2018-03-30T08:08:29.201Z,1.03
2018-03-30T08:10:56.738Z,1.00
2018-03-30T08:13:24.835Z,1.03
2018-03-30T08:15:53.625Z,1.23
2018-03-30T08:18:21.351Z,1.10
2018-03-30T08:21:03.706Z,1.00
2018-03-30T08:23:31.534Z,1.30
2018-03-30T08:25:59.171Z,0.97
2018-03-30T08:28:26.588Z,1.20
2018-03-30T08:30:54.403Z,1.30
2018-03-30T08:33:21.851Z,1.10
2018-03-30T08:35:49.290Z,1.23
2018-03-30T08:38:17.139Z,1.20
2018-03-30T08:40:44.793Z,0.97
2018-03-30T08:43:12.278Z,1.00
2018-03-30T08:45:39.706Z,1.30
2018-03-30T08:48:07.169Z,1.17
2018-03-30T08:50:34.618Z,1.67
2018-03-30T08:53:02.125Z,1.30
2018-03-30T08:55:29.868Z,1.00
2018-03-30T08:57:57.558Z,0.90
2018-03-30T09:00:25.075Z,1.20
2018-03-30T09:02:52.623Z,1.10
2018-03-30T09:05:20.081Z,1.10
2018-03-30T09:07:50.934Z,1.37
2018-03-30T09:10:18.451Z,1.50
2018-03-30T09:12:50.056Z,1.20
2018-03-30T09:15:18.055Z,2.00
2018-03-30T09:22:24.834Z,1.30
2018-03-30T09:24:54.540Z,1.20
2018-03-30T09:27:23.209Z,1.40
2018-03-30T09:29:54.371Z,0.90
2018-03-30T09:32:22.046Z,1.30
2018-03-30T09:37:38.484Z,1.60
2018-03-30T09:40:06.162Z,1.70
2018-03-30T09:42:33.960Z,1.03
2018-03-30T09:50:18.755Z,1.30
2018-03-30T09:52:46.652Z,1.20
2018-03-30T09:55:14.089Z,1.30
2018-03-30T09:57:41.541Z,1.70
2018-03-30T10:00:09.051Z,1.30
2018-03-30T10:02:36.528Z,2.00
2018-03-30T10:05:04.071Z,2.03
2018-03-30T10:07:32.819Z,2.20
2018-03-30T10:10:00.348Z,1.93
2018-03-30T10:12:27.797Z,1.60
2018-03-30T10:14:55.278Z,1.90
2018-03-30T10:17:23.744Z,1.87
2018-03-30T10:19:51.214Z,1.63
2018-03-30T10:22:18.796Z,1.93
2018-03-30T10:24:47.272Z,2.20
2018-03-30T10:27:14.717Z,1.73
2018-03-30T10:29:42.133Z,1.83
2018-03-30T10:32:09.631Z,1.80
2018-03-30T10:34:37.108Z,1.43
2018-03-30T10:37:04.711Z,1.37
2018-03-30T10:39:32.130Z,2.30
2018-03-30T10:41:59.574Z,1.70
2018-03-30T10:44:26.990Z,1.53
2018-03-30T10:46:54.470Z,1.70
2018-03-30T10:49:21.942Z,1.70
2018-03-30T10:51:49.339Z,1.73
2018-03-30T10:54:16.749Z,1.53
2018-03-30T10:56:44.202Z,1.87
2018-03-30T10:59:11.976Z,1.57
2018-03-30T11:01:39.430Z,1.43
2018-03-30T11:04:06.871Z,1.60
2018-03-30T11:06:34.707Z,1.60
2018-03-30T11:09:02.196Z,1.80
2018-03-30T11:11:29.662Z,1.97
2018-03-30T11:13:57.189Z,1.80
2018-03-30T11:16:25.487Z,1.60
2018-03-30T11:18:52.949Z,1.60
2018-03-30T11:21:20.368Z,1.90
2018-03-30T11:23:48.026Z,1.90
2018-03-30T11:26:15.914Z,2.20
2018-03-30T11:28:43.726Z,1.87
2018-03-30T11:31:11.219Z,1.47
2018-03-30T11:33:38.643Z,2.03
2018-03-30T11:36:06.121Z,1.67
2018-03-30T11:38:33.547Z,2.03
2018-03-30T11:41:00.971Z,1.77
2018-03-30T11:43:28.425Z,2.07
2018-03-30T11:45:55.874Z,1.73
2018-03-30T11:48:23.662Z,1.50
2018-03-30T11:50:51.116Z,1.80
2018-03-30T11:53:18.992Z,1.80
2018-03-30T11:55:46.710Z,1.57
2018-03-30T11:58:14.120Z,1.90
2018-03-30T12:00:41.573Z,1.87
2018-03-30T12:03:09.035Z,2.40
2018-03-30T12:05:37.211Z,1.80
2018-03-30T12:08:04.667Z,1.80
2018-03-30T12:10:32.064Z,1.60
2018-03-30T12:15:29.751Z,1.70
2018-03-30T12:17:58.412Z,1.70
2018-03-30T12:20:26.581Z,1.83
2018-03-30T12:22:54.071Z,2.00
2018-03-30T12:25:21.497Z,2.40
2018-03-30T12:27:48.925Z,2.13
2018-03-30T12:30:16.548Z,1.53
2018-03-30T12:32:44.191Z,2.13
2018-03-30T12:35:11.677Z,1.80
2018-03-30T12:37:39.147Z,1.80
2018-03-30T12:40:06.741Z,2.20
2018-03-30T12:42:34.204Z,6.27
2018-03-30T12:45:01.633Z,1.90
2018-03-30T12:47:29.066Z,1.80
2018-03-30T12:49:57.458Z,1.80
2018-03-30T12:52:24.915Z,1.70
2018-03-30T12:54:52.475Z,1.67
2018-03-30T12:57:19.898Z,1.60
2018-03-30T12:59:47.485Z,1.90
2018-03-30T13:02:15.005Z,1.80
2018-03-30T13:04:42.534Z,1.80
2018-03-30T13:07:10.118Z,2.10
2018-03-30T13:09:37.596Z,1.80
2018-03-30T13:12:05.207Z,1.83
2018-03-30T13:14:32.748Z,1.67
2018-03-30T13:17:00.194Z,1.97
2018-03-30T13:19:27.775Z,1.70
2018-03-30T13:21:55.630Z,2.53
2018-03-30T13:24:23.147Z,1.70
2018-03-30T13:26:51.231Z,2.10
2018-03-30T13:29:18.789Z,1.90
2018-03-30T13:31:46.254Z,1.97
2018-03-30T13:34:13.719Z,1.57
2018-03-30T13:36:41.158Z,1.80
2018-03-30T13:39:08.598Z,1.70
2018-03-30T13:41:36.159Z,1.40
2018-03-30T13:44:03.591Z,1.47
2018-03-30T13:46:31.136Z,2.20
2018-03-30T13:48:58.697Z,2.13
2018-03-30T13:51:27.074Z,1.40
2018-03-30T13:53:55.463Z,2.23
2018-03-30T13:56:26.371Z,2.10
2018-03-30T13:59:09.580Z,1.53
2018-03-30T14:01:39.037Z,3.70
2018-03-30T14:04:07.359Z,1.53
2018-03-30T14:06:50.562Z,2.03
2018-03-30T14:09:22.075Z,1.80
2018-03-30T14:11:49.536Z,1.40
2018-03-30T14:14:17.692Z,1.60
2018-03-30T14:16:45.161Z,2.07
2018-03-30T14:19:12.795Z,1.30
2018-03-30T14:21:56.891Z,1.90
2018-03-30T14:24:24.341Z,1.20
2018-03-30T14:26:57.693Z,1.10
2018-03-30T14:29:26.271Z,1.30
2018-03-30T14:31:57.353Z,1.43
2018-03-30T14:34:27.755Z,1.33
2018-03-30T14:37:01.748Z,1.10
2018-03-30T14:39:31.136Z,1.17
2018-03-30T14:41:59.898Z,1.20
2018-03-30T14:44:30.257Z,1.10
2018-03-30T14:46:59.468Z,1.50
2018-03-30T14:49:28.036Z,1.10
2018-03-30T14:51:55.509Z,1.40
2018-03-30T14:54:28.906Z,1.23
2018-03-30T14:57:01.485Z,1.40
2018-03-30T14:59:38.561Z,1.30
2018-03-30T15:02:07.229Z,1.20
2018-03-30T15:04:49.710Z,1.40
2018-03-30T15:07:21.055Z,1.50
2018-03-30T15:10:05.237Z,1.30
2018-03-30T15:12:33.620Z,1.43
2018-03-30T15:15:16.134Z,1.57
2018-03-30T15:17:47.209Z,1.37
2018-03-30T15:20:15.731Z,1.43
2018-03-30T15:22:46.316Z,1.53
2018-03-30T15:25:14.717Z,1.60
2018-03-30T15:27:42.353Z,1.60
2018-03-30T15:30:10.027Z,1.30
2018-03-30T15:32:38.384Z,1.90
2018-03-30T15:35:05.916Z,1.53
2018-03-30T15:37:33.592Z,2.17
2018-03-30T15:40:02.036Z,1.97
2018-03-30T15:42:29.583Z,1.47
2018-03-30T15:45:11.925Z,1.40
2018-03-30T15:47:39.747Z,1.50
2018-03-30T15:50:07.331Z,1.87
2018-03-30T15:52:34.873Z,1.77
2018-03-30T15:55:02.359Z,2.13
2018-03-30T15:57:29.854Z,1.70
2018-03-30T15:59:57.348Z,2.00
2018-03-30T16:02:25.561Z,1.90
2018-03-30T16:04:53.162Z,2.10
2018-03-30T16:07:20.610Z,1.80
2018-03-30T16:09:59.346Z,2.10
2018-03-30T16:12:27.690Z,2.10
2018-03-30T16:14:55.150Z,2.40
2018-03-30T16:17:23.332Z,2.40
2018-03-30T16:19:51.404Z,2.07
2018-03-30T16:22:18.767Z,2.10
2018-03-30T16:24:46.727Z,2.00
2018-03-30T16:27:14.044Z,2.10
2018-03-30T16:29:41.235Z,2.07
2018-03-30T16:32:09.558Z,2.53
2018-03-30T16:34:36.821Z,1.90
2018-03-30T16:37:04.055Z,2.40
2018-03-30T16:39:31.278Z,2.70
2018-03-30T16:41:58.647Z,2.30
2018-03-30T16:44:26.113Z,2.70
2018-03-30T16:46:53.492Z,4.30
2018-03-30T16:49:20.701Z,2.50
2018-03-30T16:51:52.748Z,2.40
2018-03-30T16:54:21.045Z,2.20
2018-03-30T16:56:48.256Z,2.57
2018-03-30T16:59:15.600Z,2.70
2018-03-30T17:01:42.876Z,2.43
2018-03-30T17:04:10.743Z,2.40
2018-03-30T17:06:38.724Z,2.57
2018-03-30T17:09:05.958Z,2.17
2018-03-30T17:11:33.209Z,2.50
2018-03-30T17:14:01.594Z,2.43
2018-03-30T17:16:29.482Z,2.60
2018-03-30T17:18:57.250Z,2.77
2018-03-30T17:21:27.914Z,2.20
2018-03-30T17:23:55.172Z,2.33
2018-03-30T17:26:22.530Z,2.40
2018-03-30T17:28:49.851Z,2.80
2018-03-30T17:31:18.593Z,2.73
2018-03-30T17:33:50.828Z,2.77
2018-03-30T17:36:18.140Z,2.70
2018-03-30T17:38:45.655Z,2.20
2018-03-30T17:41:12.988Z,2.30
2018-03-30T17:43:40.226Z,2.57
2018-03-30T17:46:07.437Z,2.67
2018-03-30T17:48:34.833Z,2.30
2018-03-30T17:51:03.448Z,2.87
2018-03-30T17:53:30.877Z,2.80
2018-03-30T17:55:58.110Z,3.00
2018-03-30T17:58:25.332Z,2.57
2018-03-30T18:00:52.606Z,2.93
2018-03-30T18:03:19.832Z,2.90
2018-03-30T18:05:47.127Z,2.90
2018-03-30T18:08:15.099Z,2.40
2018-03-30T18:10:42.296Z,2.87
2018-03-30T18:13:09.508Z,2.47
2018-03-30T18:15:43.715Z,3.00
2018-03-30T18:20:56.635Z,2.93
2018-03-30T18:23:24.671Z,2.80
2018-03-30T18:25:51.950Z,2.70
2018-03-30T18:28:19.303Z,2.90
2018-03-30T18:30:47.321Z,3.20
2018-03-30T18:33:14.632Z,2.90
2018-03-30T18:35:42.423Z,2.50
2018-03-30T18:38:18.309Z,2.90
2018-03-30T18:41:54.631Z,2.50
2018-03-30T18:47:31.410Z,2.30
2018-03-30T18:50:03.852Z,2.63
2018-03-30T18:52:34.320Z,2.73
2018-03-30T18:55:02.716Z,2.90
2018-03-30T18:57:29.960Z,3.73
2018-03-30T18:59:57.356Z,3.10
2018-03-30T19:02:24.759Z,3.07
2018-03-30T19:04:52.011Z,2.77
2018-03-30T19:07:19.218Z,3.70
2018-03-30T19:09:46.509Z,2.83
2018-03-30T19:14:47.436Z,2.20
2018-03-30T19:17:15.745Z,2.17
2018-03-30T19:19:43.079Z,2.00
2018-03-30T19:22:10.311Z,2.00
2018-03-30T19:24:37.973Z,2.17
2018-03-30T19:27:05.199Z,2.27
2018-03-30T19:29:32.409Z,2.20
2018-03-30T19:32:00.327Z,2.40
2018-03-30T19:34:27.690Z,2.33
2018-03-30T19:36:54.928Z,2.17
2018-03-30T19:39:23.287Z,1.47
2018-03-30T19:41:50.576Z,1.60
2018-03-30T19:44:17.921Z,1.43
2018-03-30T19:46:45.254Z,1.60
2018-03-30T19:49:12.511Z,1.73
2018-03-30T19:51:39.774Z,1.93
2018-03-30T19:54:06.987Z,1.80
2018-03-30T19:56:34.173Z,1.73
2018-03-30T19:59:01.509Z,1.87
2018-03-30T20:01:29.512Z,2.00
2018-03-30T20:03:57.030Z,2.40
2018-03-30T20:06:24.238Z,2.27
2018-03-30T20:08:51.475Z,1.93
2018-03-30T20:11:18.757Z,2.03
2018-03-30T20:13:46.529Z,2.00
2018-03-30T20:16:14.599Z,2.00
2018-03-30T20:18:41.797Z,1.80
2018-03-30T20:21:09.119Z,1.70
2018-03-30T20:26:18.077Z,1.70
2018-03-30T20:28:45.824Z,2.03
2018-03-30T20:31:13.772Z,1.80
2018-03-30T20:33:41.117Z,1.97
2018-03-30T20:36:08.670Z,2.10
2018-03-30T20:41:12.763Z,2.30
2018-03-30T20:43:40.024Z,2.47
2018-03-30T20:46:07.798Z,2.67
2018-03-30T20:48:36.333Z,2.30
2018-03-30T20:51:03.613Z,2.20
2018-03-30T20:53:30.893Z,2.53
2018-03-30T20:55:58.215Z,2.10
2018-03-30T20:58:26.216Z,2.00
2018-03-30T21:00:57.343Z,2.27
2018-03-30T21:03:24.658Z,2.20
2018-03-30T21:05:52.545Z,2.07
2018-03-30T21:08:19.810Z,2.50
2018-03-30T21:10:47.062Z,2.07
2018-03-30T21:13:15.015Z,2.57
2018-03-30T21:15:42.254Z,2.20
2018-03-30T21:18:09.469Z,2.37
2018-03-30T21:20:36.797Z,2.10
2018-03-30T21:23:04.789Z,2.33
2018-03-30T21:25:32.380Z,2.57
2018-03-30T21:27:59.665Z,2.03
2018-03-30T21:30:27.049Z,1.90
2018-03-30T21:32:54.731Z,2.10
2018-03-30T21:35:21.995Z,1.80
2018-03-30T21:37:49.194Z,2.27
2018-03-30T21:40:16.449Z,2.00
2018-03-30T21:42:43.709Z,2.83
2018-03-30T21:45:11.122Z,2.40
2018-03-30T21:47:38.433Z,2.03
2018-03-30T21:50:05.637Z,3.20
2018-03-30T21:52:32.848Z,3.63
2018-03-30T21:55:00.115Z,4.27
2018-03-30T21:57:27.722Z,3.57
2018-03-30T21:59:54.977Z,4.30
2018-03-30T22:02:22.432Z,3.53
2018-03-30T22:04:49.751Z,3.40
2018-03-30T22:07:16.966Z,4.10
2018-03-30T22:09:44.219Z,4.10
2018-03-30T22:12:11.412Z,3.20
2018-03-30T22:14:38.626Z,3.83
2018-03-30T22:17:06.299Z,4.37
2018-03-30T22:19:33.487Z,4.53
2018-03-30T22:22:00.687Z,3.80
2018-03-30T22:24:27.915Z,2.90
2018-03-30T22:26:55.172Z,2.77
2018-03-30T22:29:22.577Z,2.97
2018-03-30T22:31:49.843Z,3.43
2018-03-30T22:34:17.043Z,2.80
2018-03-30T22:36:44.354Z,2.80
2018-03-30T22:39:11.580Z,3.13
2018-03-30T22:41:38.804Z,3.70
2018-03-30T22:44:06.600Z,2.37
2018-03-30T22:46:33.830Z,3.40
2018-03-30T22:49:01.048Z,2.20
2018-03-30T22:51:28.306Z,2.10
2018-03-30T22:53:55.484Z,1.93
2018-03-30T22:56:23.453Z,2.20
2018-03-30T22:58:50.731Z,1.80
2018-03-30T23:01:18.501Z,2.00
2018-03-30T23:03:45.751Z,2.27
2018-03-30T23:06:12.971Z,2.60
2018-03-30T23:08:40.918Z,5.33
2018-03-30T23:11:08.153Z,3.60
2018-03-30T23:13:35.441Z,5.70
2018-03-30T23:16:02.669Z,3.33
2018-03-30T23:18:29.951Z,3.30
2018-03-30T23:20:57.168Z,3.50
2018-03-30T23:23:25.066Z,3.30
2018-03-30T23:25:52.260Z,3.50
2018-03-30T23:28:19.470Z,3.20
2018-03-30T23:30:46.747Z,3.50
2018-03-30T23:33:13.946Z,3.23
2018-03-30T23:35:41.161Z,3.20
2018-03-30T23:38:08.373Z,2.53
2018-03-30T23:40:35.600Z,3.70
2018-03-30T23:43:03.637Z,3.30
2018-03-30T23:45:30.825Z,3.77
2018-03-30T23:47:58.050Z,2.70
2018-03-30T23:50:25.267Z,2.90
2018-03-30T23:52:52.508Z,2.80
2018-03-30T23:55:19.696Z,3.13
2018-03-30T23:57:46.894Z,4.13
